sensor_id;sensor_type;location;lat;lon;timestamp;P1;durP1;ratioP1;P2;durP2;ratioP2
48767;SDS011;34933;40.968;14.538;2022-11-06T00:01:41;25.48;;;16.58;;
48767;SDS011;34933;40.968;14.538;2022-11-06T00:04:27;11.88;;;9.57;;
48767;SDS011;34933;40.968;14.538;2022-11-06T00:07:12;14.13;;;9.75;;
48767;SDS011;34933;40.968;14.538;2022-11-06T00:09:57;10.27;;;7.80;;
48767;SDS011;34933;40.968;14.538;2022-11-06T00:12:41;15.93;;;9.85;;
48767;SDS011;34933;40.968;14.538;2022-11-06T00:15:27;11.75;;;8.77;;
48767;SDS011;34933;40.968;14.538;2022-11-06T00:18:11;11.95;;;6.90;;
48767;SDS011;34933;40.968;14.538;2022-11-06T00:20:56;8.88;;;6.45;;
48767;SDS011;34933;40.968;14.538;2022-11-06T00:23:41;7.18;;;5.85;;
48767;SDS011;34933;40.968;14.538;2022-11-06T00:26:26;7.28;;;4.85;;
48767;SDS011;34933;40.968;14.538;2022-11-06T00:29:13;7.18;;;5.32;;
48767;SDS011;34933;40.968;14.538;2022-11-06T00:31:59;5.85;;;4.22;;
48767;SDS011;34933;40.968;14.538;2022-11-06T00:34:43;3.13;;;2.83;;
48767;SDS011;34933;40.968;14.538;2022-11-06T00:37:28;3.15;;;2.85;;
48767;SDS011;34933;40.968;14.538;2022-11-06T00:40:12;3.20;;;2.80;;
48767;SDS011;34933;40.968;14.538;2022-11-06T00:42:57;4.60;;;3.20;;
48767;SDS011;34933;40.968;14.538;2022-11-06T00:45:42;4.07;;;2.50;;
48767;SDS011;34933;40.968;14.538;2022-11-06T00:48:26;5.07;;;2.95;;
48767;SDS011;34933;40.968;14.538;2022-11-06T00:54:03;6.85;;;4.93;;
48767;SDS011;34933;40.968;14.538;2022-11-06T00:56:50;19.63;;;14.32;;
48767;SDS011;34933;40.968;14.538;2022-11-06T00:59:34;27.85;;;18.90;;
48767;SDS011;34933;40.968;14.538;2022-11-06T01:02:19;17.75;;;14.13;;
48767;SDS011;34933;40.968;14.538;2022-11-06T01:05:04;24.80;;;17.02;;
48767;SDS011;34933;40.968;14.538;2022-11-06T01:07:49;25.02;;;17.58;;
48767;SDS011;34933;40.968;14.538;2022-11-06T01:10:35;28.65;;;19.55;;
48767;SDS011;34933;40.968;14.538;2022-11-06T01:13:20;25.85;;;18.83;;
48767;SDS011;34933;40.968;14.538;2022-11-06T01:16:05;22.67;;;16.00;;
48767;SDS011;34933;40.968;14.538;2022-11-06T01:18:52;19.52;;;12.07;;
48767;SDS011;34933;40.968;14.538;2022-11-06T01:21:38;13.35;;;8.30;;
48767;SDS011;34933;40.968;14.538;2022-11-06T01:24:25;6.38;;;5.20;;
48767;SDS011;34933;40.968;14.538;2022-11-06T01:27:11;4.13;;;3.70;;
48767;SDS011;34933;40.968;14.538;2022-11-06T01:29:55;4.95;;;3.63;;
48767;SDS011;34933;40.968;14.538;2022-11-06T01:32:40;6.28;;;3.65;;
48767;SDS011;34933;40.968;14.538;2022-11-06T01:35:24;2.55;;;2.10;;
48767;SDS011;34933;40.968;14.538;2022-11-06T01:38:09;4.97;;;3.20;;
48767;SDS011;34933;40.968;14.538;2022-11-06T01:40:53;2.85;;;2.30;;
48767;SDS011;34933;40.968;14.538;2022-11-06T01:43:49;3.35;;;2.95;;
48767;SDS011;34933;40.968;14.538;2022-11-06T01:46:34;4.97;;;1.98;;
48767;SDS011;34933;40.968;14.538;2022-11-06T01:49:19;7.25;;;3.28;;
48767;SDS011;34933;40.968;14.538;2022-11-06T01:52:08;7.18;;;2.92;;
48767;SDS011;34933;40.968;14.538;2022-11-06T01:54:55;2.50;;;2.30;;
48767;SDS011;34933;40.968;14.538;2022-11-06T01:57:44;2.15;;;1.95;;
48767;SDS011;34933;40.968;14.538;2022-11-06T02:00:30;3.97;;;2.05;;
48767;SDS011;34933;40.968;14.538;2022-11-06T02:03:15;5.32;;;1.90;;
48767;SDS011;34933;40.968;14.538;2022-11-06T02:06:00;3.50;;;2.08;;
48767;SDS011;34933;40.968;14.538;2022-11-06T02:08:45;3.80;;;2.03;;
48767;SDS011;34933;40.968;14.538;2022-11-06T02:11:30;4.32;;;2.05;;
48767;SDS011;34933;40.968;14.538;2022-11-06T02:17:33;4.18;;;2.20;;
48767;SDS011;34933;40.968;14.538;2022-11-06T02:23:19;3.55;;;2.53;;
48767;SDS011;34933;40.968;14.538;2022-11-06T02:38:15;5.70;;;3.20;;
48767;SDS011;34933;40.968;14.538;2022-11-06T02:41:04;4.80;;;3.20;;
48767;SDS011;34933;40.968;14.538;2022-11-06T02:43:54;5.53;;;3.90;;
48767;SDS011;34933;40.968;14.538;2022-11-06T02:46:41;6.97;;;4.50;;
48767;SDS011;34933;40.968;14.538;2022-11-06T02:49:36;7.22;;;5.10;;
48767;SDS011;34933;40.968;14.538;2022-11-06T02:52:35;7.22;;;4.35;;
48767;SDS011;34933;40.968;14.538;2022-11-06T02:55:24;8.13;;;5.32;;
48767;SDS011;34933;40.968;14.538;2022-11-06T02:58:18;6.45;;;4.45;;
48767;SDS011;34933;40.968;14.538;2022-11-06T03:01:28;6.25;;;3.78;;
48767;SDS011;34933;40.968;14.538;2022-11-06T03:04:32;3.33;;;3.03;;
48767;SDS011;34933;40.968;14.538;2022-11-06T03:07:20;4.68;;;3.25;;
48767;SDS011;34933;40.968;14.538;2022-11-06T03:10:43;4.68;;;4.00;;
48767;SDS011;34933;40.968;14.538;2022-11-06T03:20:33;14.63;;;9.13;;
48767;SDS011;34933;40.968;14.538;2022-11-06T03:26:08;15.75;;;10.55;;
48767;SDS011;34933;40.968;14.538;2022-11-06T03:31:50;16.65;;;10.50;;
48767;SDS011;34933;40.968;14.538;2022-11-06T03:34:59;17.17;;;11.73;;
48767;SDS011;34933;40.968;14.538;2022-11-06T03:37:49;19.83;;;12.88;;
48767;SDS011;34933;40.968;14.538;2022-11-06T03:40:58;14.57;;;10.73;;
48767;SDS011;34933;40.968;14.538;2022-11-06T03:43:47;13.00;;;8.13;;
48767;SDS011;34933;40.968;14.538;2022-11-06T03:46:32;11.90;;;8.55;;
48767;SDS011;34933;40.968;14.538;2022-11-06T03:49:21;10.88;;;8.75;;
48767;SDS011;34933;40.968;14.538;2022-11-06T03:52:18;11.48;;;7.82;;
48767;SDS011;34933;40.968;14.538;2022-11-06T03:55:08;12.07;;;8.65;;
48767;SDS011;34933;40.968;14.538;2022-11-06T03:58:03;11.70;;;8.43;;
48767;SDS011;34933;40.968;14.538;2022-11-06T04:00:52;14.45;;;9.02;;
48767;SDS011;34933;40.968;14.538;2022-11-06T04:03:40;10.68;;;8.43;;
48767;SDS011;34933;40.968;14.538;2022-11-06T04:06:34;14.27;;;9.20;;
48767;SDS011;34933;40.968;14.538;2022-11-06T04:09:40;12.23;;;8.77;;
48767;SDS011;34933;40.968;14.538;2022-11-06T04:12:48;10.35;;;6.63;;
48767;SDS011;34933;40.968;14.538;2022-11-06T04:15:53;8.93;;;6.93;;
48767;SDS011;34933;40.968;14.538;2022-11-06T04:18:38;10.57;;;7.18;;
48767;SDS011;34933;40.968;14.538;2022-11-06T04:31:08;10.23;;;6.07;;
48767;SDS011;34933;40.968;14.538;2022-11-06T04:36:45;7.65;;;6.47;;
48767;SDS011;34933;40.968;14.538;2022-11-06T04:39:36;8.82;;;6.07;;
48767;SDS011;34933;40.968;14.538;2022-11-06T04:45:50;6.82;;;5.28;;
48767;SDS011;34933;40.968;14.538;2022-11-06T04:48:37;6.78;;;5.22;;
48767;SDS011;34933;40.968;14.538;2022-11-06T04:51:26;6.25;;;5.60;;
48767;SDS011;34933;40.968;14.538;2022-11-06T04:54:14;8.18;;;6.03;;
48767;SDS011;34933;40.968;14.538;2022-11-06T04:57:00;7.13;;;6.10;;
48767;SDS011;34933;40.968;14.538;2022-11-06T04:59:45;8.27;;;6.35;;
48767;SDS011;34933;40.968;14.538;2022-11-06T05:02:30;6.53;;;5.13;;
48767;SDS011;34933;40.968;14.538;2022-11-06T05:05:15;7.20;;;6.30;;
48767;SDS011;34933;40.968;14.538;2022-11-06T05:07:59;7.30;;;6.45;;
48767;SDS011;34933;40.968;14.538;2022-11-06T05:10:44;2.50;;;2.30;;
48767;SDS011;34933;40.968;14.538;2022-11-06T05:13:28;41.15;;;31.88;;
48767;SDS011;34933;40.968;14.538;2022-11-06T05:16:13;12.88;;;8.63;;
48767;SDS011;34933;40.968;14.538;2022-11-06T05:18:58;4.53;;;3.80;;
48767;SDS011;34933;40.968;14.538;2022-11-06T05:21:42;2.83;;;2.60;;
48767;SDS011;34933;40.968;14.538;2022-11-06T05:24:45;3.75;;;2.63;;
48767;SDS011;34933;40.968;14.538;2022-11-06T05:27:30;3.35;;;2.60;;
48767;SDS011;34933;40.968;14.538;2022-11-06T05:30:15;3.08;;;2.80;;
48767;SDS011;34933;40.968;14.538;2022-11-06T05:32:59;1.75;;;1.13;;
48767;SDS011;34933;40.968;14.538;2022-11-06T05:35:47;4.53;;;2.95;;
48767;SDS011;34933;40.968;14.538;2022-11-06T05:38:32;3.80;;;1.77;;
48767;SDS011;34933;40.968;14.538;2022-11-06T05:41:17;3.45;;;0.68;;
48767;SDS011;34933;40.968;14.538;2022-11-06T05:44:02;1.17;;;0.70;;
48767;SDS011;34933;40.968;14.538;2022-11-06T05:46:47;0.28;;;0.28;;
48767;SDS011;34933;40.968;14.538;2022-11-06T05:49:31;1.00;;;0.40;;
48767;SDS011;34933;40.968;14.538;2022-11-06T05:52:16;1.90;;;0.25;;
48767;SDS011;34933;40.968;14.538;2022-11-06T05:55:00;1.63;;;0.40;;
48767;SDS011;34933;40.968;14.538;2022-11-06T05:57:45;0.00;;;0.00;;
48767;SDS011;34933;40.968;14.538;2022-11-06T06:00:30;0.00;;;0.00;;
48767;SDS011;34933;40.968;14.538;2022-11-06T06:03:15;0.10;;;0.10;;
48767;SDS011;34933;40.968;14.538;2022-11-06T06:05:59;0.00;;;0.00;;
48767;SDS011;34933;40.968;14.538;2022-11-06T06:08:44;1.60;;;0.00;;
48767;SDS011;34933;40.968;14.538;2022-11-06T06:11:28;0.00;;;0.00;;
48767;SDS011;34933;40.968;14.538;2022-11-06T06:14:13;0.10;;;0.10;;
48767;SDS011;34933;40.968;14.538;2022-11-06T06:16:58;0.00;;;0.00;;
48767;SDS011;34933;40.968;14.538;2022-11-06T06:19:43;0.00;;;0.00;;
48767;SDS011;34933;40.968;14.538;2022-11-06T06:22:27;0.10;;;0.10;;
48767;SDS011;34933;40.968;14.538;2022-11-06T06:25:12;0.00;;;0.00;;
48767;SDS011;34933;40.968;14.538;2022-11-06T06:27:57;1.35;;;0.00;;
48767;SDS011;34933;40.968;14.538;2022-11-06T06:30:41;0.30;;;0.30;;
48767;SDS011;34933;40.968;14.538;2022-11-06T06:33:26;0.20;;;0.20;;
48767;SDS011;34933;40.968;14.538;2022-11-06T06:36:10;0.38;;;0.28;;
48767;SDS011;34933;40.968;14.538;2022-11-06T06:38:55;0.47;;;0.22;;
48767;SDS011;34933;40.968;14.538;2022-11-06T06:41:39;0.47;;;0.40;;
48767;SDS011;34933;40.968;14.538;2022-11-06T06:44:24;0.10;;;0.10;;
48767;SDS011;34933;40.968;14.538;2022-11-06T06:47:09;0.05;;;0.05;;
48767;SDS011;34933;40.968;14.538;2022-11-06T06:49:53;0.28;;;0.20;;
48767;SDS011;34933;40.968;14.538;2022-11-06T06:52:38;0.10;;;0.10;;
48767;SDS011;34933;40.968;14.538;2022-11-06T06:55:22;0.22;;;0.10;;
48767;SDS011;34933;40.968;14.538;2022-11-06T06:58:07;0.20;;;0.20;;
48767;SDS011;34933;40.968;14.538;2022-11-06T07:00:53;1.83;;;0.10;;
48767;SDS011;34933;40.968;14.538;2022-11-06T07:03:38;0.17;;;0.10;;
48767;SDS011;34933;40.968;14.538;2022-11-06T07:06:23;0.08;;;0.08;;
48767;SDS011;34933;40.968;14.538;2022-11-06T07:09:07;0.32;;;0.10;;
48767;SDS011;34933;40.968;14.538;2022-11-06T07:11:52;0.00;;;0.00;;
48767;SDS011;34933;40.968;14.538;2022-11-06T07:14:37;0.00;;;0.00;;
48767;SDS011;34933;40.968;14.538;2022-11-06T07:17:21;0.00;;;0.00;;
48767;SDS011;34933;40.968;14.538;2022-11-06T07:20:07;3.83;;;0.17;;
48767;SDS011;34933;40.968;14.538;2022-11-06T07:22:52;0.45;;;0.20;;
48767;SDS011;34933;40.968;14.538;2022-11-06T07:25:36;0.98;;;0.10;;
48767;SDS011;34933;40.968;14.538;2022-11-06T07:28:21;0.10;;;0.10;;
48767;SDS011;34933;40.968;14.538;2022-11-06T07:31:06;0.38;;;0.10;;
48767;SDS011;34933;40.968;14.538;2022-11-06T07:33:51;3.13;;;0.47;;
48767;SDS011;34933;40.968;14.538;2022-11-06T07:36:35;1.33;;;0.20;;
48767;SDS011;34933;40.968;14.538;2022-11-06T07:39:20;0.22;;;0.13;;
48767;SDS011;34933;40.968;14.538;2022-11-06T07:42:05;3.50;;;0.30;;
48767;SDS011;34933;40.968;14.538;2022-11-06T07:44:53;1.80;;;0.60;;
48767;SDS011;34933;40.968;14.538;2022-11-06T07:47:38;3.28;;;0.25;;
48767;SDS011;34933;40.968;14.538;2022-11-06T07:50:22;1.85;;;0.32;;
48767;SDS011;34933;40.968;14.538;2022-11-06T07:53:07;1.95;;;0.40;;
48767;SDS011;34933;40.968;14.538;2022-11-06T07:55:53;1.85;;;0.57;;
48767;SDS011;34933;40.968;14.538;2022-11-06T07:58:39;0.68;;;0.40;;
48767;SDS011;34933;40.968;14.538;2022-11-06T08:01:24;2.65;;;0.80;;
48767;SDS011;34933;40.968;14.538;2022-11-06T08:04:09;5.30;;;0.60;;
48767;SDS011;34933;40.968;14.538;2022-11-06T08:06:55;1.63;;;0.80;;
48767;SDS011;34933;40.968;14.538;2022-11-06T08:09:40;3.80;;;0.63;;
48767;SDS011;34933;40.968;14.538;2022-11-06T08:12:25;2.42;;;0.50;;
48767;SDS011;34933;40.968;14.538;2022-11-06T08:15:09;2.33;;;0.50;;
48767;SDS011;34933;40.968;14.538;2022-11-06T08:17:54;1.08;;;0.30;;
48767;SDS011;34933;40.968;14.538;2022-11-06T08:20:42;2.63;;;0.32;;
48767;SDS011;34933;40.968;14.538;2022-11-06T08:23:26;2.08;;;0.40;;
48767;SDS011;34933;40.968;14.538;2022-11-06T08:26:11;1.30;;;0.50;;
48767;SDS011;34933;40.968;14.538;2022-11-06T08:28:56;2.88;;;0.75;;
48767;SDS011;34933;40.968;14.538;2022-11-06T08:31:40;0.95;;;0.55;;
48767;SDS011;34933;40.968;14.538;2022-11-06T08:34:25;1.33;;;0.50;;
48767;SDS011;34933;40.968;14.538;2022-11-06T08:37:10;3.78;;;0.60;;
48767;SDS011;34933;40.968;14.538;2022-11-06T08:39:54;1.17;;;0.55;;
48767;SDS011;34933;40.968;14.538;2022-11-06T08:42:39;3.15;;;0.40;;
48767;SDS011;34933;40.968;14.538;2022-11-06T08:45:23;2.70;;;0.73;;
48767;SDS011;34933;40.968;14.538;2022-11-06T08:48:08;3.00;;;0.63;;
48767;SDS011;34933;40.968;14.538;2022-11-06T08:50:54;2.92;;;0.40;;
48767;SDS011;34933;40.968;14.538;2022-11-06T08:53:38;1.33;;;0.47;;
48767;SDS011;34933;40.968;14.538;2022-11-06T08:56:23;0.80;;;0.57;;
48767;SDS011;34933;40.968;14.538;2022-11-06T08:59:08;2.55;;;0.60;;
48767;SDS011;34933;40.968;14.538;2022-11-06T09:01:52;2.25;;;0.60;;
48767;SDS011;34933;40.968;14.538;2022-11-06T09:04:37;1.90;;;0.60;;
48767;SDS011;34933;40.968;14.538;2022-11-06T09:07:22;1.58;;;0.50;;
48767;SDS011;34933;40.968;14.538;2022-11-06T09:10:06;1.83;;;0.68;;
48767;SDS011;34933;40.968;14.538;2022-11-06T09:12:51;5.95;;;1.58;;
48767;SDS011;34933;40.968;14.538;2022-11-06T09:15:36;2.17;;;1.25;;
48767;SDS011;34933;40.968;14.538;2022-11-06T09:18:21;2.38;;;0.70;;
48767;SDS011;34933;40.968;14.538;2022-11-06T09:21:05;5.00;;;0.98;;
48767;SDS011;34933;40.968;14.538;2022-11-06T09:23:50;2.78;;;0.80;;
48767;SDS011;34933;40.968;14.538;2022-11-06T09:26:35;3.42;;;0.80;;
48767;SDS011;34933;40.968;14.538;2022-11-06T09:29:19;2.58;;;0.80;;
48767;SDS011;34933;40.968;14.538;2022-11-06T09:32:04;1.15;;;0.70;;
48767;SDS011;34933;40.968;14.538;2022-11-06T09:34:50;4.78;;;1.35;;
48767;SDS011;34933;40.968;14.538;2022-11-06T09:37:34;6.18;;;1.77;;
48767;SDS011;34933;40.968;14.538;2022-11-06T09:40:27;7.75;;;1.17;;
48767;SDS011;34933;40.968;14.538;2022-11-06T09:43:25;3.63;;;1.15;;
48767;SDS011;34933;40.968;14.538;2022-11-06T09:49:57;2.63;;;0.70;;
48767;SDS011;34933;40.968;14.538;2022-11-06T09:55:40;3.13;;;1.23;;
48767;SDS011;34933;40.968;14.538;2022-11-06T09:58:29;3.05;;;0.93;;
48767;SDS011;34933;40.968;14.538;2022-11-06T10:01:22;3.42;;;0.80;;
48767;SDS011;34933;40.968;14.538;2022-11-06T10:04:20;1.63;;;0.40;;
48767;SDS011;34933;40.968;14.538;2022-11-06T10:07:13;1.85;;;0.50;;
48767;SDS011;34933;40.968;14.538;2022-11-06T10:10:15;3.20;;;1.42;;
48767;SDS011;34933;40.968;14.538;2022-11-06T10:16:28;2.03;;;0.55;;
48767;SDS011;34933;40.968;14.538;2022-11-06T10:22:08;3.50;;;0.70;;
48767;SDS011;34933;40.968;14.538;2022-11-06T10:37:25;1.02;;;0.60;;
48767;SDS011;34933;40.968;14.538;2022-11-06T10:40:20;6.13;;;1.10;;
48767;SDS011;34933;40.968;14.538;2022-11-06T10:55:40;2.72;;;1.48;;
48767;SDS011;34933;40.968;14.538;2022-11-06T10:58:42;1.65;;;0.80;;
48767;SDS011;34933;40.968;14.538;2022-11-06T11:01:27;2.72;;;0.68;;
48767;SDS011;34933;40.968;14.538;2022-11-06T11:04:11;5.70;;;1.50;;
48767;SDS011;34933;40.968;14.538;2022-11-06T11:06:56;5.32;;;0.70;;
48767;SDS011;34933;40.968;14.538;2022-11-06T11:09:45;5.15;;;1.13;;
48767;SDS011;34933;40.968;14.538;2022-11-06T11:12:32;3.33;;;0.75;;
48767;SDS011;34933;40.968;14.538;2022-11-06T11:15:17;3.03;;;1.30;;
48767;SDS011;34933;40.968;14.538;2022-11-06T11:21:09;5.70;;;0.77;;
48767;SDS011;34933;40.968;14.538;2022-11-06T11:27:02;3.70;;;1.42;;
48767;SDS011;34933;40.968;14.538;2022-11-06T11:29:50;7.57;;;1.27;;
48767;SDS011;34933;40.968;14.538;2022-11-06T11:32:34;4.25;;;0.80;;
48767;SDS011;34933;40.968;14.538;2022-11-06T11:35:20;4.80;;;1.02;;
48767;SDS011;34933;40.968;14.538;2022-11-06T11:38:12;2.78;;;0.70;;
48767;SDS011;34933;40.968;14.538;2022-11-06T11:41:10;2.50;;;1.10;;
48767;SDS011;34933;40.968;14.538;2022-11-06T11:43:57;2.70;;;0.88;;
48767;SDS011;34933;40.968;14.538;2022-11-06T11:46:51;2.47;;;0.82;;
48767;SDS011;34933;40.968;14.538;2022-11-06T11:49:37;3.45;;;0.88;;
48767;SDS011;34933;40.968;14.538;2022-11-06T11:52:22;3.35;;;1.00;;
48767;SDS011;34933;40.968;14.538;2022-11-06T11:55:17;1.95;;;0.80;;
48767;SDS011;34933;40.968;14.538;2022-11-06T11:58:05;6.60;;;1.38;;
48767;SDS011;34933;40.968;14.538;2022-11-06T12:01:06;2.13;;;0.80;;
48767;SDS011;34933;40.968;14.538;2022-11-06T12:03:52;3.92;;;0.93;;
48767;SDS011;34933;40.968;14.538;2022-11-06T12:06:36;3.50;;;0.60;;
48767;SDS011;34933;40.968;14.538;2022-11-06T12:09:43;3.25;;;0.80;;
48767;SDS011;34933;40.968;14.538;2022-11-06T12:12:29;2.90;;;1.00;;
48767;SDS011;34933;40.968;14.538;2022-11-06T12:15:23;2.05;;;0.82;;
48767;SDS011;34933;40.968;14.538;2022-11-06T12:18:26;4.60;;;0.70;;
48767;SDS011;34933;40.968;14.538;2022-11-06T12:24:17;2.50;;;0.80;;
48767;SDS011;34933;40.968;14.538;2022-11-06T12:27:10;2.40;;;1.05;;
48767;SDS011;34933;40.968;14.538;2022-11-06T12:30:02;5.88;;;1.00;;
48767;SDS011;34933;40.968;14.538;2022-11-06T12:36:01;2.42;;;0.90;;
48767;SDS011;34933;40.968;14.538;2022-11-06T12:38:57;5.15;;;1.00;;
48767;SDS011;34933;40.968;14.538;2022-11-06T12:41:46;1.98;;;0.70;;
48767;SDS011;34933;40.968;14.538;2022-11-06T12:44:33;4.10;;;1.02;;
48767;SDS011;34933;40.968;14.538;2022-11-06T12:50:23;4.00;;;1.13;;
48767;SDS011;34933;40.968;14.538;2022-11-06T12:54:20;4.68;;;1.77;;
48767;SDS011;34933;40.968;14.538;2022-11-06T13:11:26;4.72;;;1.42;;
48767;SDS011;34933;40.968;14.538;2022-11-06T13:14:34;2.15;;;0.88;;
48767;SDS011;34933;40.968;14.538;2022-11-06T13:17:34;2.53;;;0.80;;
48767;SDS011;34933;40.968;14.538;2022-11-06T13:20:44;4.00;;;0.90;;
48767;SDS011;34933;40.968;14.538;2022-11-06T13:23:35;4.05;;;1.60;;
48767;SDS011;34933;40.968;14.538;2022-11-06T13:29:30;6.25;;;1.10;;
48767;SDS011;34933;40.968;14.538;2022-11-06T13:32:16;2.60;;;0.95;;
48767;SDS011;34933;40.968;14.538;2022-11-06T13:35:03;1.95;;;0.80;;
48767;SDS011;34933;40.968;14.538;2022-11-06T13:37:48;4.50;;;1.40;;
48767;SDS011;34933;40.968;14.538;2022-11-06T13:40:35;2.92;;;0.90;;
48767;SDS011;34933;40.968;14.538;2022-11-06T13:43:40;5.18;;;1.05;;
48767;SDS011;34933;40.968;14.538;2022-11-06T13:53:21;3.65;;;0.90;;
48767;SDS011;34933;40.968;14.538;2022-11-06T14:17:09;3.40;;;1.05;;
48767;SDS011;34933;40.968;14.538;2022-11-06T14:22:39;4.70;;;1.10;;
48767;SDS011;34933;40.968;14.538;2022-11-06T14:28:11;3.53;;;1.23;;
48767;SDS011;34933;40.968;14.538;2022-11-06T14:31:38;3.33;;;0.90;;
48767;SDS011;34933;40.968;14.538;2022-11-06T14:34:36;1.42;;;0.82;;
48767;SDS011;34933;40.968;14.538;2022-11-06T14:40:13;3.50;;;0.82;;
48767;SDS011;34933;40.968;14.538;2022-11-06T14:42:57;2.97;;;0.90;;
48767;SDS011;34933;40.968;14.538;2022-11-06T14:48:49;3.70;;;0.95;;
48767;SDS011;34933;40.968;14.538;2022-11-06T14:51:36;2.28;;;1.00;;
48767;SDS011;34933;40.968;14.538;2022-11-06T14:54:21;6.07;;;1.00;;
48767;SDS011;34933;40.968;14.538;2022-11-06T14:57:11;3.92;;;1.00;;
48767;SDS011;34933;40.968;14.538;2022-11-06T14:59:59;3.63;;;1.23;;
48767;SDS011;34933;40.968;14.538;2022-11-06T15:02:44;3.83;;;0.95;;
48767;SDS011;34933;40.968;14.538;2022-11-06T15:05:31;4.97;;;1.50;;
48767;SDS011;34933;40.968;14.538;2022-11-06T15:17:14;2.30;;;0.70;;
48767;SDS011;34933;40.968;14.538;2022-11-06T15:20:04;4.93;;;0.90;;
48767;SDS011;34933;40.968;14.538;2022-11-06T15:26:01;4.53;;;1.00;;
48767;SDS011;34933;40.968;14.538;2022-11-06T15:29:23;4.97;;;1.10;;
48767;SDS011;34933;40.968;14.538;2022-11-06T15:35:24;5.47;;;1.55;;
48767;SDS011;34933;40.968;14.538;2022-11-06T15:38:12;5.55;;;2.03;;
48767;SDS011;34933;40.968;14.538;2022-11-06T15:41:00;3.72;;;1.02;;
48767;SDS011;34933;40.968;14.538;2022-11-06T15:43:45;4.03;;;1.30;;
48767;SDS011;34933;40.968;14.538;2022-11-06T15:46:32;6.63;;;1.52;;
48767;SDS011;34933;40.968;14.538;2022-11-06T15:49:19;2.70;;;1.30;;
48767;SDS011;34933;40.968;14.538;2022-11-06T15:52:04;6.75;;;1.90;;
48767;SDS011;34933;40.968;14.538;2022-11-06T15:54:51;5.88;;;1.92;;
48767;SDS011;34933;40.968;14.538;2022-11-06T15:57:36;4.28;;;1.00;;
48767;SDS011;34933;40.968;14.538;2022-11-06T16:00:22;6.60;;;1.27;;
48767;SDS011;34933;40.968;14.538;2022-11-06T16:03:12;3.70;;;1.42;;
48767;SDS011;34933;40.968;14.538;2022-11-06T16:06:00;6.53;;;1.92;;
48767;SDS011;34933;40.968;14.538;2022-11-06T16:08:46;9.02;;;2.25;;
48767;SDS011;34933;40.968;14.538;2022-11-06T16:11:32;53.75;;;23.13;;
48767;SDS011;34933;40.968;14.538;2022-11-06T16:14:17;8.68;;;3.72;;
48767;SDS011;34933;40.968;14.538;2022-11-06T16:17:22;6.22;;;3.97;;
48767;SDS011;34933;40.968;14.538;2022-11-06T16:20:11;4.90;;;1.67;;
48767;SDS011;34933;40.968;14.538;2022-11-06T16:22:56;8.32;;;1.42;;
48767;SDS011;34933;40.968;14.538;2022-11-06T16:25:46;4.53;;;1.40;;
48767;SDS011;34933;40.968;14.538;2022-11-06T16:28:31;4.88;;;1.42;;
48767;SDS011;34933;40.968;14.538;2022-11-06T16:31:18;4.60;;;1.55;;
48767;SDS011;34933;40.968;14.538;2022-11-06T16:34:06;4.97;;;1.27;;
48767;SDS011;34933;40.968;14.538;2022-11-06T16:37:04;19.42;;;8.65;;
48767;SDS011;34933;40.968;14.538;2022-11-06T16:39:51;11.02;;;3.40;;
48767;SDS011;34933;40.968;14.538;2022-11-06T16:42:36;3.70;;;1.15;;
48767;SDS011;34933;40.968;14.538;2022-11-06T16:45:22;3.67;;;1.27;;
48767;SDS011;34933;40.968;14.538;2022-11-06T16:50:54;11.63;;;2.42;;
48767;SDS011;34933;40.968;14.538;2022-11-06T16:53:51;2.70;;;1.38;;
48767;SDS011;34933;40.968;14.538;2022-11-06T16:56:40;6.97;;;2.05;;
48767;SDS011;34933;40.968;14.538;2022-11-06T16:59:24;5.22;;;1.67;;
48767;SDS011;34933;40.968;14.538;2022-11-06T17:02:19;6.75;;;1.50;;
48767;SDS011;34933;40.968;14.538;2022-11-06T17:05:12;1.95;;;1.40;;
48767;SDS011;34933;40.968;14.538;2022-11-06T17:13:56;9.30;;;3.95;;
48767;SDS011;34933;40.968;14.538;2022-11-06T17:16:45;3.50;;;1.40;;
48767;SDS011;34933;40.968;14.538;2022-11-06T17:19:34;6.70;;;1.25;;
48767;SDS011;34933;40.968;14.538;2022-11-06T17:22:19;3.55;;;1.10;;
48767;SDS011;34933;40.968;14.538;2022-11-06T17:25:05;2.90;;;1.00;;
48767;SDS011;34933;40.968;14.538;2022-11-06T17:27:50;4.45;;;2.20;;
48767;SDS011;34933;40.968;14.538;2022-11-06T17:30:34;4.95;;;1.60;;
48767;SDS011;34933;40.968;14.538;2022-11-06T17:33:20;8.20;;;2.70;;
48767;SDS011;34933;40.968;14.538;2022-11-06T17:36:04;7.20;;;2.95;;
48767;SDS011;34933;40.968;14.538;2022-11-06T17:38:50;6.40;;;1.85;;
48767;SDS011;34933;40.968;14.538;2022-11-06T17:41:35;6.07;;;1.60;;
48767;SDS011;34933;40.968;14.538;2022-11-06T17:44:19;7.05;;;1.50;;
48767;SDS011;34933;40.968;14.538;2022-11-06T17:47:05;6.55;;;3.00;;
48767;SDS011;34933;40.968;14.538;2022-11-06T17:49:49;5.65;;;3.10;;
48767;SDS011;34933;40.968;14.538;2022-11-06T17:52:34;3.70;;;1.70;;
48767;SDS011;34933;40.968;14.538;2022-11-06T17:55:18;4.80;;;2.58;;
48767;SDS011;34933;40.968;14.538;2022-11-06T17:58:03;8.35;;;2.67;;
48767;SDS011;34933;40.968;14.538;2022-11-06T18:00:47;8.85;;;3.40;;
48767;SDS011;34933;40.968;14.538;2022-11-06T18:03:33;6.65;;;3.25;;
48767;SDS011;34933;40.968;14.538;2022-11-06T18:06:19;6.05;;;3.60;;
48767;SDS011;34933;40.968;14.538;2022-11-06T18:09:05;9.73;;;4.18;;
48767;SDS011;34933;40.968;14.538;2022-11-06T18:11:52;6.22;;;3.88;;
48767;SDS011;34933;40.968;14.538;2022-11-06T18:14:37;6.32;;;3.28;;
48767;SDS011;34933;40.968;14.538;2022-11-06T18:17:21;7.65;;;3.33;;
48767;SDS011;34933;40.968;14.538;2022-11-06T18:20:06;7.47;;;3.20;;
48767;SDS011;34933;40.968;14.538;2022-11-06T18:22:51;6.97;;;2.50;;
48767;SDS011;34933;40.968;14.538;2022-11-06T18:25:36;6.53;;;2.63;;
48767;SDS011;34933;40.968;14.538;2022-11-06T18:28:21;3.85;;;2.80;;
48767;SDS011;34933;40.968;14.538;2022-11-06T18:31:07;5.82;;;2.40;;
48767;SDS011;34933;40.968;14.538;2022-11-06T18:33:52;8.50;;;2.95;;
48767;SDS011;34933;40.968;14.538;2022-11-06T18:36:36;8.13;;;4.15;;
48767;SDS011;34933;40.968;14.538;2022-11-06T18:39:21;6.68;;;4.03;;
48767;SDS011;34933;40.968;14.538;2022-11-06T18:42:06;9.20;;;5.50;;
48767;SDS011;34933;40.968;14.538;2022-11-06T18:44:50;13.65;;;8.50;;
48767;SDS011;34933;40.968;14.538;2022-11-06T18:47:35;7.82;;;4.20;;
48767;SDS011;34933;40.968;14.538;2022-11-06T18:50:20;5.75;;;3.10;;
48767;SDS011;34933;40.968;14.538;2022-11-06T18:53:04;8.07;;;3.22;;
48767;SDS011;34933;40.968;14.538;2022-11-06T18:55:50;7.28;;;3.60;;
48767;SDS011;34933;40.968;14.538;2022-11-06T18:58:35;9.98;;;4.43;;
48767;SDS011;34933;40.968;14.538;2022-11-06T19:01:20;5.80;;;3.47;;
48767;SDS011;34933;40.968;14.538;2022-11-06T19:04:06;6.95;;;3.45;;
48767;SDS011;34933;40.968;14.538;2022-11-06T19:06:53;8.98;;;3.20;;
48767;SDS011;34933;40.968;14.538;2022-11-06T19:09:38;4.70;;;2.83;;
48767;SDS011;34933;40.968;14.538;2022-11-06T19:12:23;6.50;;;3.67;;
48767;SDS011;34933;40.968;14.538;2022-11-06T19:15:07;7.40;;;3.15;;
48767;SDS011;34933;40.968;14.538;2022-11-06T19:17:53;5.47;;;2.90;;
48767;SDS011;34933;40.968;14.538;2022-11-06T19:20:41;6.80;;;3.33;;
48767;SDS011;34933;40.968;14.538;2022-11-06T19:23:27;9.68;;;3.38;;
48767;SDS011;34933;40.968;14.538;2022-11-06T19:26:13;9.20;;;3.78;;
48767;SDS011;34933;40.968;14.538;2022-11-06T19:28:59;9.05;;;3.45;;
48767;SDS011;34933;40.968;14.538;2022-11-06T19:31:43;10.60;;;5.90;;
48767;SDS011;34933;40.968;14.538;2022-11-06T19:34:28;10.45;;;4.45;;
48767;SDS011;34933;40.968;14.538;2022-11-06T19:37:13;6.75;;;3.83;;
48767;SDS011;34933;40.968;14.538;2022-11-06T19:39:57;5.78;;;3.05;;